Weather at Blancos del Coscojar

Public forecast

Using degrees Celsius for public forecast. Weather courtesy of forecast.io.

Closest aviation weather report (METAR) to Blancos del Coscojar

Closest report is Teruel Airport, 8.9 nm (16.4 km) WNW. Retrieved 2021/04/11 13:00 UTC (3 minutes ago):

LETL 111300Z AUTO 35009KT 330V030 9999 FEW032 SCT041 11/07 Q1014

Closest aviation forecast (TAF) to Blancos del Coscojar

Closest forecast is Teruel Airport, 8.9 nm (16.4 km) WNW. Retrieved 2021/04/11 12:00 UTC (1 hour ago):

TAF LETL 111100Z 1112/1212 26009KT 9999 BKN015 TX16/1114Z TN03/1206Z TEMPO 1112/1120 SHRA BKN010 FEW020TCU BECMG 1112/1115 35015KT